Time;durP1;ratioP1;P1;durP2;ratioP2;P2;SDS_P1;SDS_P2;PMS_P1;PMS_P2;Temp;Humidity;BMP_temperature;BMP_pressure;BME280_temperature;BME280_humidity;BME280_pressure;Samples;Min_cycle;Max_cycle;Signal;HPM_P1;HPM_P2
2021/07/10 04:32:57;;;;;;;11.10;9.67;;;12.60;99.90;;;;;;4986771;23;20479;-82
2021/07/10 04:35:23;;;;;;;10.53;9.53;;;12.70;99.90;;;;;;4956985;28;20451;-81
2021/07/10 04:37:49;;;;;;;10.57;9.67;;;12.70;99.90;;;;;;4957405;28;20685;-80
2021/07/10 04:40:15;;;;;;;11.20;10.10;;;12.70;99.90;;;;;;4949752;28;20180;-82
2021/07/10 04:42:41;;;;;;;11.50;10.40;;;12.80;99.90;;;;;;4958553;28;20444;-82
2021/07/10 04:45:08;;;;;;;12.33;10.80;;;12.80;99.90;;;;;;4958451;28;20203;-81
2021/07/10 04:47:34;;;;;;;13.50;11.40;;;12.90;99.90;;;;;;4958910;28;20937;-82
2021/07/10 04:50:00;;;;;;;12.33;11.13;;;13.00;99.90;;;;;;4955828;28;20424;-81
2021/07/10 04:52:26;;;;;;;11.80;10.70;;;13.10;99.90;;;;;;4955154;28;20635;-81
2021/07/10 04:54:51;;;;;;;10.30;9.30;;;13.20;99.90;;;;;;4955415;28;20256;-81
2021/07/10 04:57:17;;;;;;;12.23;10.90;;;13.30;99.90;;;;;;4955833;28;20208;-82
2021/07/10 04:59:42;;;;;;;14.43;11.43;;;13.40;99.90;;;;;;4956210;28;20207;-81
2021/07/10 05:02:08;;;;;;;13.37;10.80;;;13.60;99.90;;;;;;4958730;28;20737;-82
2021/07/10 05:04:34;;;;;;;18.87;10.87;;;13.80;99.90;;;;;;4958092;28;20192;-82
2021/07/10 05:06:59;;;;;;;12.60;10.90;;;13.90;99.90;;;;;;4958838;28;20193;-82
2021/07/10 05:09:24;;;;;;;13.47;10.50;;;14.20;99.90;;;;;;4959242;28;20192;-82
2021/07/10 05:11:50;;;;;;;10.33;9.40;;;14.60;99.90;;;;;;4958513;28;20213;-82
2021/07/10 05:14:16;;;;;;;10.77;9.70;;;15.00;99.90;;;;;;4958830;28;20684;-81
2021/07/10 05:16:42;;;;;;;9.47;8.57;;;15.40;99.90;;;;;;4958509;28;20216;-82
2021/07/10 05:19:08;;;;;;;9.70;8.70;;;15.90;99.90;;;;;;4959105;28;20426;-81
2021/07/10 05:21:34;;;;;;;10.77;8.77;;;16.40;99.90;;;;;;4959187;28;20602;-82
2021/07/10 05:24:00;;;;;;;9.27;8.37;;;16.90;99.90;;;;;;4959146;28;20231;-82
2021/07/10 05:26:27;;;;;;;9.03;8.13;;;17.30;99.90;;;;;;4958741;29;20439;-82
2021/07/10 05:28:52;;;;;;;9.30;8.30;;;17.80;99.90;;;;;;4958966;29;20420;-81
2021/07/10 05:31:18;;;;;;;10.57;8.60;;;18.10;99.90;;;;;;4957831;28;20466;-82
2021/07/10 05:33:43;;;;;;;10.70;8.47;;;18.60;99.90;;;;;;4959856;29;20267;-82
2021/07/10 05:36:09;;;;;;;8.90;8.10;;;18.90;99.90;;;;;;4959871;29;20196;-82
2021/07/10 05:38:35;;;;;;;11.30;8.87;;;19.20;99.90;;;;;;4960080;29;20176;-82
2021/07/10 05:41:01;;;;;;;9.53;8.17;;;19.40;99.90;;;;;;4961047;28;20432;-82
2021/07/10 05:43:27;;;;;;;9.50;8.60;;;19.50;99.90;;;;;;4960267;28;20435;-82
2021/07/10 05:45:52;;;;;;;9.57;8.57;;;19.70;99.90;;;;;;4960611;28;20191;-82
2021/07/10 05:48:19;;;;;;;11.53;8.03;;;19.90;99.90;;;;;;4957977;29;20191;-83
2021/07/10 05:50:45;;;;;;;10.40;9.37;;;20.00;99.90;;;;;;4959557;28;20646;-82
2021/07/10 05:53:10;;;;;;;8.90;8.10;;;20.30;99.90;;;;;;4960687;28;20420;-81
2021/07/10 05:55:36;;;;;;;14.00;8.97;;;20.50;99.90;;;;;;4962517;29;20439;-82
2021/07/10 05:58:02;;;;;;;8.67;7.90;;;20.80;99.90;;;;;;4973760;29;20208;-82
2021/07/10 06:00:30;;;;;;;7.97;7.20;;;20.90;99.90;;;;;;4954920;29;20195;-80
2021/07/10 06:02:56;;;;;;;8.80;7.10;;;20.90;99.90;;;;;;4953078;28;20528;-77
2021/07/10 06:05:21;;;;;;;8.30;7.30;;;20.90;99.90;;;;;;4953086;29;20499;-77
2021/07/10 06:07:47;;;;;;;8.10;7.40;;;21.00;99.90;;;;;;4953381;29;20424;-77
2021/07/10 06:10:13;;;;;;;7.20;6.47;;;21.10;99.90;;;;;;4953257;28;20255;-77
2021/07/10 06:12:39;;;;;;;8.40;7.70;;;21.30;99.90;;;;;;4953062;28;20204;-77
2021/07/10 06:15:08;;;;;;;8.07;6.63;;;21.40;99.90;;;;;;4951757;29;20585;-78
2021/07/10 06:17:34;;;;;;;6.60;5.97;;;21.60;99.90;;;;;;4954677;28;20463;-77
2021/07/10 06:19:59;;;;;;;7.07;6.40;;;21.70;99.90;;;;;;4956933;29;20467;-78
2021/07/10 06:22:25;;;;;;;7.43;6.73;;;21.80;99.90;;;;;;4956774;28;20196;-77
2021/07/10 06:24:51;;;;;;;10.47;5.87;;;21.80;99.90;;;;;;4956876;29;20185;-77
2021/07/10 06:27:17;;;;;;;8.10;6.43;;;21.80;99.90;;;;;;4956784;28;20184;-78
2021/07/10 06:29:43;;;;;;;6.33;5.60;;;21.80;99.90;;;;;;4956818;29;20416;-78
2021/07/10 06:32:09;;;;;;;6.57;6.10;;;22.10;99.90;;;;;;4957094;28;20471;-77
2021/07/10 06:34:35;;;;;;;6.23;5.77;;;22.30;99.90;;;;;;4956408;28;20412;-77
2021/07/10 06:37:01;;;;;;;5.87;5.20;;;22.50;99.90;;;;;;4956729;29;20208;-77
2021/07/10 06:39:26;;;;;;;7.93;5.63;;;22.60;99.90;;;;;;4955337;28;20180;-78
2021/07/10 06:41:52;;;;;;;7.00;6.03;;;22.70;99.90;;;;;;4956400;28;20300;-77
2021/07/10 06:44:18;;;;;;;10.87;6.17;;;22.80;99.90;;;;;;4956280;28;20260;-77
2021/07/10 06:46:44;;;;;;;8.50;5.83;;;22.80;99.90;;;;;;4956331;28;20556;-77
2021/07/10 06:49:09;;;;;;;6.67;5.27;;;23.00;99.90;;;;;;4956478;28;20430;-77
2021/07/10 06:51:35;;;;;;;7.33;5.17;;;23.20;99.90;;;;;;4956181;28;20208;-78
2021/07/10 06:54:01;;;;;;;5.90;5.30;;;23.60;99.90;;;;;;4956212;29;20173;-77
2021/07/10 06:56:27;;;;;;;5.23;4.83;;;23.70;99.90;;;;;;4956002;28;20184;-78
2021/07/10 06:58:52;;;;;;;7.13;6.50;;;23.70;99.90;;;;;;4956320;28;20415;-78
2021/07/10 07:01:18;;;;;;;6.40;5.23;;;23.90;99.90;;;;;;4956230;28;20693;-78
2021/07/10 07:03:43;;;;;;;8.70;6.60;;;23.80;99.90;;;;;;4956120;28;20181;-78
2021/07/10 07:06:09;;;;;;;9.10;6.37;;;24.00;99.90;;;;;;4956211;29;20181;-78
2021/07/10 07:08:34;;;;;;;7.30;6.60;;;24.00;99.90;;;;;;4956007;28;20196;-78
2021/07/10 07:11:00;;;;;;;6.63;6.13;;;24.00;99.90;;;;;;4956197;28;20546;-78
2021/07/10 07:13:25;;;;;;;6.73;5.30;;;24.30;99.90;;;;;;4955758;29;20213;-78
2021/07/10 07:15:51;;;;;;;5.60;5.00;;;24.10;99.90;;;;;;4956360;29;20197;-78
2021/07/10 07:18:17;;;;;;;6.00;5.50;;;24.20;99.90;;;;;;4954662;29;20216;-78
2021/07/10 07:20:43;;;;;;;6.17;5.57;;;24.50;99.90;;;;;;4954422;28;20217;-78
2021/07/10 07:23:08;;;;;;;5.00;4.70;;;24.80;99.90;;;;;;4955732;28;20173;-78
2021/07/10 07:25:34;;;;;;;5.83;4.77;;;24.80;99.90;;;;;;4958459;29;20417;-78
2021/07/10 07:28:00;;;;;;;5.83;5.23;;;25.00;99.90;;;;;;4955709;28;20177;-77
2021/07/10 07:30:26;;;;;;;5.20;4.80;;;24.80;99.90;;;;;;4954867;28;20287;-78
2021/07/10 07:32:52;;;;;;;6.53;4.60;;;24.80;99.90;;;;;;4955457;28;21008;-77
2021/07/10 07:35:19;;;;;;;4.70;4.30;;;24.80;99.90;;;;;;4955367;29;20173;-78
2021/07/10 07:37:45;;;;;;;5.87;5.33;;;25.00;99.90;;;;;;4955497;29;20495;-78
2021/07/10 07:40:12;;;;;;;5.97;5.37;;;25.40;99.90;;;;;;4954396;29;20808;-77
2021/07/10 07:42:37;;;;;;;6.67;5.97;;;25.40;99.90;;;;;;4955386;28;20436;-77
2021/07/10 07:45:05;;;;;;;6.40;5.80;;;25.50;99.90;;;;;;4954201;29;20415;-78
2021/07/10 07:47:31;;;;;;;5.40;5.00;;;25.50;99.90;;;;;;4955119;28;20243;-76
2021/07/10 07:49:56;;;;;;;5.20;4.73;;;25.70;99.90;;;;;;4955250;29;20626;-76
2021/07/10 07:52:22;;;;;;;4.80;4.50;;;25.90;99.90;;;;;;4955008;28;20205;-75
2021/07/10 07:54:47;;;;;;;6.27;5.57;;;25.90;99.90;;;;;;4955227;29;20251;-76
2021/07/10 07:57:13;;;;;;;5.37;4.93;;;25.80;99.90;;;;;;4954915;28;20247;-76
2021/07/10 07:59:38;;;;;;;7.17;5.20;;;25.40;99.90;;;;;;4954960;28;20611;-76
2021/07/10 08:02:04;;;;;;;9.20;5.90;;;25.40;99.90;;;;;;4955022;28;20272;-77
2021/07/10 08:04:30;;;;;;;6.77;6.07;;;25.60;99.90;;;;;;4954873;28;20642;-76
2021/07/10 08:06:56;;;;;;;6.17;5.57;;;25.70;99.90;;;;;;4953872;29;20479;-77
2021/07/10 08:09:21;;;;;;;8.00;6.07;;;25.80;99.90;;;;;;4954703;29;20272;-77
2021/07/10 08:11:47;;;;;;;6.00;5.50;;;25.80;99.90;;;;;;4954860;28;20209;-77
2021/07/10 08:14:13;;;;;;;5.70;5.20;;;25.60;99.90;;;;;;4954712;29;20260;-77
2021/07/10 08:16:38;;;;;;;6.03;5.43;;;25.50;99.90;;;;;;4954774;29;20204;-76
2021/07/10 08:19:04;;;;;;;5.50;5.10;;;25.50;99.90;;;;;;4954596;28;20725;-77
2021/07/10 08:21:32;;;;;;;5.97;5.40;;;25.70;99.90;;;;;;4954456;28;20487;-76
2021/07/10 08:23:58;;;;;;;5.83;5.33;;;26.10;99.90;;;;;;4954382;29;20181;-76
2021/07/10 08:26:24;;;;;;;4.87;4.30;;;25.90;99.90;;;;;;4954561;28;20413;-77
2021/07/10 08:28:50;;;;;;;5.63;5.23;;;25.80;99.90;;;;;;4956835;28;20424;-76
2021/07/10 08:31:15;;;;;;;5.27;4.77;;;25.80;99.90;;;;;;4954037;28;20463;-76
2021/07/10 08:33:41;;;;;;;5.30;4.90;;;25.80;99.90;;;;;;4954176;28;20638;-77
2021/07/10 08:36:07;;;;;;;5.83;5.20;;;26.10;99.90;;;;;;4954346;29;20180;-77
2021/07/10 08:38:34;;;;;;;5.63;5.13;;;26.00;99.90;;;;;;4954275;28;20310;-77
2021/07/10 08:41:00;;;;;;;5.00;4.60;;;26.20;99.90;;;;;;4953696;28;20788;-76
2021/07/10 08:43:25;;;;;;;5.40;5.00;;;26.40;99.90;;;;;;4954092;28;20452;-77
2021/07/10 08:45:52;;;;;;;5.17;4.87;;;26.70;99.90;;;;;;4954218;28;20527;-77
2021/07/10 08:48:17;;;;;;;4.30;4.10;;;26.80;99.90;;;;;;4954082;28;20192;-76
2021/07/10 08:50:43;;;;;;;4.63;4.27;;;26.90;99.90;;;;;;4954138;28;20935;-77
2021/07/10 08:53:10;;;;;;;4.00;3.70;;;27.20;99.90;;;;;;4954016;29;20199;-77
2021/07/10 08:55:39;;;;;;;4.57;4.17;;;27.20;99.90;;;;;;4952683;29;21020;-77
2021/07/10 08:58:05;;;;;;;4.03;3.73;;;27.40;99.90;;;;;;4954144;28;20464;-78
2021/07/10 09:00:39;;;;;;;5.17;4.43;;;27.90;99.90;;;;;;4953027;29;20807;-77
2021/07/10 09:03:07;;;;;;;5.90;3.90;;;28.20;99.90;;;;;;4953911;28;20183;-77
2021/07/10 09:05:33;;;;;;;4.77;4.33;;;28.20;99.90;;;;;;4953862;28;20424;-77
2021/07/10 09:08:13;;;;;;;4.10;3.40;;;28.20;99.90;;;;;;4953846;29;20431;-76
2021/07/10 09:11:07;;;;;;;4.87;3.93;;;28.10;99.90;;;;;;4953587;28;20423;-76
2021/07/10 09:13:43;;;;;;;3.70;3.40;;;28.40;99.90;;;;;;4953558;28;20925;-76
2021/07/10 09:16:26;;;;;;;2.70;2.50;;;28.60;99.90;;;;;;4953794;28;20412;-77
2021/07/10 09:19:00;;;;;;;3.80;2.80;;;28.50;99.90;;;;;;4953652;28;20417;-77
2021/07/10 09:21:46;;;;;;;3.00;2.80;;;28.80;99.90;;;;;;4953345;28;20464;-77
2021/07/10 09:24:17;;;;;;;2.00;1.90;;;28.70;99.90;;;;;;4953367;28;20427;-77
2021/07/10 09:26:46;;;;;;;2.37;2.17;;;29.00;99.90;;;;;;4954618;29;20408;-77
2021/07/10 09:29:12;;;;;;;2.37;2.13;;;28.90;99.90;;;;;;4954726;28;20416;-77
2021/07/10 09:31:46;;;;;;;2.47;2.27;;;29.30;99.90;;;;;;4954540;28;20705;-77
2021/07/10 09:34:15;;;;;;;2.50;2.10;;;29.30;99.90;;;;;;4954450;29;20608;-77
2021/07/10 09:37:08;;;;;;;9.57;2.97;;;29.20;99.90;;;;;;4954049;29;20495;-77
2021/07/10 09:39:41;;;;;;;2.37;2.17;;;29.20;99.90;;;;;;4953754;28;20877;-77
2021/07/10 09:42:07;;;;;;;2.07;1.80;;;29.50;99.90;;;;;;4953930;28;20519;-77
2021/07/10 09:44:44;;;;;;;2.20;2.00;;;29.80;99.90;;;;;;4953934;28;20424;-77
2021/07/10 09:47:11;;;;;;;2.90;2.60;;;29.40;99.90;;;;;;4953810;29;20768;-77
2021/07/10 09:49:38;;;;;;;2.43;2.33;;;28.90;99.90;;;;;;4953125;28;20511;-77
2021/07/10 09:52:14;;;;;;;3.50;2.10;;;29.10;99.90;;;;;;4952589;28;20491;-77
2021/07/10 09:54:45;;;;;;;2.20;2.00;;;29.40;99.90;;;;;;4953226;28;20443;-76
2021/07/10 09:57:32;;;;;;;3.80;2.40;;;29.70;99.90;;;;;;4953198;28;20459;-76
2021/07/10 10:00:03;;;;;;;2.63;2.43;;;29.80;99.90;;;;;;4953634;28;20467;-77
2021/07/10 10:02:31;;;;;;;3.27;2.97;;;29.50;99.90;;;;;;4953097;28;20433;-76
2021/07/10 10:05:16;;;;;;;3.83;2.40;;;29.40;99.90;;;;;;4953334;29;20475;-77
2021/07/10 10:07:53;;;;;;;2.23;2.13;;;29.50;99.90;;;;;;4953302;29;20424;-77
2021/07/10 10:10:23;;;;;;;2.43;2.30;;;29.50;99.90;;;;;;4953423;28;20416;-77
2021/07/10 10:13:07;;;;;;;2.23;2.13;;;29.60;99.90;;;;;;4953086;28;20487;-76
2021/07/10 10:15:43;;;;;;;2.50;2.30;;;29.60;99.90;;;;;;4954294;28;20431;-76
2021/07/10 10:18:11;;;;;;;2.70;2.60;;;30.10;99.90;;;;;;4953335;28;20470;-77
2021/07/10 10:20:38;;;;;;;3.80;2.40;;;30.00;99.90;;;;;;4953279;28;20834;-76
2021/07/10 10:23:04;;;;;;;2.27;2.07;;;30.50;99.90;;;;;;4952896;28;20408;-76
2021/07/10 10:25:30;;;;;;;3.13;2.13;;;30.60;99.90;;;;;;4953051;29;20416;-77
2021/07/10 10:27:56;;;;;;;2.30;2.10;;;30.60;99.90;;;;;;4953304;28;20499;-77
2021/07/10 10:30:22;;;;;;;3.77;2.60;;;31.10;99.90;;;;;;4953279;28;20447;-77
2021/07/10 10:32:48;;;;;;;1.87;1.77;;;31.50;99.90;;;;;;4952807;28;20217;-77
2021/07/10 10:35:15;;;;;;;3.60;2.17;;;31.50;99.90;;;;;;4953006;28;20431;-77
2021/07/10 10:37:42;;;;;;;2.37;2.07;;;31.40;99.90;;;;;;4953034;29;20522;-76
2021/07/10 10:40:10;;;;;;;2.27;2.17;;;31.30;99.90;;;;;;4951729;29;20420;-76
2021/07/10 10:42:37;;;;;;;2.27;2.07;;;31.50;99.90;;;;;;4952763;28;20551;-76
2021/07/10 10:45:04;;;;;;;3.20;2.90;;;31.50;99.90;;;;;;4952939;28;20420;-76
2021/07/10 10:47:45;;;;;;;3.70;2.93;;;31.40;99.90;;;;;;4951417;29;20470;-75
2021/07/10 10:50:25;;;;;;;2.27;2.17;;;31.30;99.90;;;;;;4953170;28;20478;-76
2021/07/10 10:52:53;;;;;;;2.70;2.27;;;30.80;99.90;;;;;;4953211;28;20853;-77
2021/07/10 10:55:35;;;;;;;2.00;1.90;;;30.70;99.90;;;;;;4952816;28;20813;-76
2021/07/10 10:58:22;;;;;;;2.50;2.40;;;30.70;99.90;;;;;;4953191;28;20505;-76
2021/07/10 11:00:59;;;;;;;2.60;2.50;;;30.50;99.90;;;;;;4952717;28;20404;-76
2021/07/10 11:03:35;;;;;;;2.97;2.50;;;30.40;99.90;;;;;;4954564;28;20411;-76
2021/07/10 11:06:01;;;;;;;2.10;2.00;;;30.20;99.90;;;;;;4958817;28;20495;-76
2021/07/10 11:08:29;;;;;;;2.40;2.20;;;30.00;99.90;;;;;;4956161;29;21005;-76
2021/07/10 11:10:56;;;;;;;2.60;2.40;;;29.70;99.90;;;;;;4957210;28;20196;-77
2021/07/10 11:13:52;;;;;;;2.70;1.73;;;29.40;99.90;;;;;;4955824;28;20495;-76
2021/07/10 11:16:20;;;;;;;3.53;1.73;;;29.70;99.90;;;;;;4956124;28;20507;-77
2021/07/10 11:18:58;;;;;;;2.63;1.67;;;29.50;99.90;;;;;;4956086;28;20946;-76
2021/07/10 11:21:35;;;;;;;2.13;2.03;;;29.10;99.90;;;;;;4955862;28;20440;-76
2021/07/10 11:26:53;;;;;;;2.70;2.50;;;28.30;99.90;;;;;;4955904;28;20448;-77
2021/07/10 11:29:22;;;;;;;2.53;2.17;;;28.30;99.90;;;;;;4955793;28;20440;-76
2021/07/10 11:31:48;;;;;;;3.00;2.77;;;28.10;99.90;;;;;;4954399;28;20970;-76
2021/07/10 11:34:32;;;;;;;2.30;2.10;;;28.10;99.90;;;;;;4955672;29;20421;-77
2021/07/10 11:36:58;;;;;;;2.40;2.30;;;28.50;99.90;;;;;;4955779;29;20823;-77
2021/07/10 11:39:24;;;;;;;5.63;2.50;;;29.00;99.90;;;;;;4955399;29;20408;-77
2021/07/10 11:41:50;;;;;;;2.63;2.43;;;28.80;99.90;;;;;;4955585;28;20508;-77
2021/07/10 11:44:18;;;;;;;1.90;1.80;;;28.80;99.90;;;;;;4955270;28;20177;-77
2021/07/10 11:46:56;;;;;;;1.97;1.87;;;28.50;99.90;;;;;;4955532;28;20461;-76
2021/07/10 11:49:40;;;;;;;3.80;2.47;;;28.40;99.90;;;;;;4955211;28;20431;-77
2021/07/10 11:52:12;;;;;;;2.43;2.30;;;28.10;99.90;;;;;;4955386;28;20440;-76
2021/07/10 11:54:44;;;;;;;3.87;2.37;;;28.30;99.90;;;;;;4955112;28;20420;-75
2021/07/10 11:57:10;;;;;;;1.97;1.83;;;28.30;99.50;;;;;;4955556;29;20542;-76
2021/07/10 11:59:36;;;;;;;1.73;1.63;;;28.10;99.90;;;;;;4955315;28;20424;-76
2021/07/10 12:02:26;;;;;;;4.40;1.63;;;28.30;99.90;;;;;;4955402;28;20196;-77
2021/07/10 12:05:09;;;;;;;2.00;1.90;;;28.30;99.90;;;;;;4955131;29;20424;-77
2021/07/10 12:07:47;;;;;;;3.93;2.00;;;28.20;99.90;;;;;;4955366;28;21249;-77
2021/07/10 12:10:18;;;;;;;1.93;1.83;;;28.10;99.90;;;;;;4956312;29;20804;-77
2021/07/10 12:12:48;;;;;;;2.93;2.60;;;27.80;99.90;;;;;;4955308;28;20440;-76
2021/07/10 12:15:17;;;;;;;4.40;2.20;;;27.60;99.90;;;;;;4954438;28;20420;-77
2021/07/10 12:17:45;;;;;;;3.10;2.90;;;27.60;99.90;;;;;;4954884;29;20523;-76
2021/07/10 12:20:11;;;;;;;2.73;2.57;;;27.70;99.90;;;;;;4954977;28;20412;-77
2021/07/10 12:22:52;;;;;;;2.90;2.50;;;27.40;99.90;;;;;;4954202;28;20529;-76
2021/07/10 12:25:20;;;;;;;4.30;3.07;;;27.40;99.90;;;;;;4954785;28;20420;-76
2021/07/10 12:28:12;;;;;;;4.00;2.93;;;27.60;99.90;;;;;;4954630;28;20504;-77
2021/07/10 12:30:51;;;;;;;4.33;3.70;;;27.30;99.90;;;;;;4953265;28;20515;-76
2021/07/10 12:33:34;;;;;;;3.03;2.83;;;27.30;99.90;;;;;;4954404;28;20434;-77
2021/07/10 12:36:06;;;;;;;3.90;3.50;;;27.30;99.90;;;;;;4954713;28;20412;-76
2021/07/10 12:38:32;;;;;;;3.80;2.53;;;27.20;99.90;;;;;;4953003;28;20467;-77
2021/07/10 12:41:22;;;;;;;3.40;3.20;;;27.10;99.90;;;;;;4954539;28;20449;-76
2021/07/10 12:43:49;;;;;;;12.13;4.30;;;27.00;99.90;;;;;;4954067;28;20766;-76
2021/07/10 12:46:14;;;;;;;3.30;3.10;;;27.00;99.90;;;;;;4954567;28;20423;-75
2021/07/10 12:48:40;;;;;;;3.33;2.70;;;27.10;99.90;;;;;;4953145;28;20424;-76
2021/07/10 12:51:05;;;;;;;3.00;2.90;;;27.20;99.90;;;;;;4954381;28;20231;-76
2021/07/10 12:53:33;;;;;;;8.43;2.90;;;27.40;99.90;;;;;;4953967;28;20184;-76
2021/07/10 12:56:24;;;;;;;2.93;2.67;;;27.50;99.90;;;;;;4954295;28;20181;-76
2021/07/10 12:58:51;;;;;;;4.00;3.10;;;27.50;99.90;;;;;;4953146;29;20421;-76
2021/07/10 13:01:21;;;;;;;2.97;2.77;;;27.20;99.90;;;;;;4954127;28;20992;-77
2021/07/10 13:03:51;;;;;;;3.07;2.87;;;27.20;99.90;;;;;;4954035;28;20404;-76
2021/07/10 13:06:17;;;;;;;3.13;2.97;;;27.10;99.90;;;;;;4952619;29;20412;-77
2021/07/10 13:08:53;;;;;;;6.30;2.63;;;26.90;99.90;;;;;;4954059;28;20463;-77
2021/07/10 13:11:19;;;;;;;4.90;2.83;;;26.70;99.90;;;;;;4952508;28;20232;-76
2021/07/10 13:13:50;;;;;;;4.40;2.90;;;26.60;99.90;;;;;;4953785;29;20471;-77
2021/07/10 13:16:17;;;;;;;3.90;3.13;;;26.70;99.90;;;;;;4953867;28;20408;-76
2021/07/10 13:18:55;;;;;;;3.63;3.30;;;26.90;99.90;;;;;;4954139;28;20499;-77
2021/07/10 13:21:30;;;;;;;4.57;2.90;;;27.00;99.90;;;;;;4953582;28;20962;-77
2021/07/10 13:23:57;;;;;;;3.10;2.90;;;27.00;99.90;;;;;;4953744;29;20416;-77
2021/07/10 13:26:33;;;;;;;2.47;2.37;;;27.20;99.90;;;;;;4953521;28;20413;-77
2021/07/10 13:29:06;;;;;;;3.33;3.20;;;27.30;99.90;;;;;;4953811;28;20921;-77
2021/07/10 13:31:36;;;;;;;2.50;2.40;;;27.30;99.90;;;;;;4953396;28;20488;-76
2021/07/10 13:34:14;;;;;;;3.40;3.10;;;27.00;99.90;;;;;;4953659;28;20415;-76
2021/07/10 13:36:41;;;;;;;4.67;3.03;;;26.70;99.90;;;;;;4953463;28;20424;-76
2021/07/10 13:39:13;;;;;;;2.73;2.57;;;26.50;99.90;;;;;;4953665;29;20416;-77
2021/07/10 13:41:54;;;;;;;3.40;3.10;;;26.50;99.90;;;;;;4953403;28;20437;-76
2021/07/10 13:44:20;;;;;;;3.23;2.93;;;26.60;99.90;;;;;;4953376;28;20441;-76
2021/07/10 13:47:00;;;;;;;2.60;2.50;;;26.60;99.90;;;;;;4953448;28;20420;-76
2021/07/10 13:49:40;;;;;;;4.77;3.23;;;26.60;99.90;;;;;;4953538;28;20440;-76
2021/07/10 13:52:16;;;;;;;4.40;4.10;;;26.40;99.90;;;;;;4953311;28;20503;-76
2021/07/10 13:54:56;;;;;;;3.43;3.00;;;26.40;99.90;;;;;;4953503;28;20420;-75
2021/07/10 13:57:28;;;;;;;2.70;2.50;;;26.30;99.90;;;;;;4951942;29;20473;-76
2021/07/10 14:00:33;;;;;;;3.07;2.87;;;26.30;99.90;;;;;;4953695;28;20768;-76
2021/07/10 14:03:00;;;;;;;2.60;2.47;;;26.40;99.90;;;;;;4953210;28;21018;-76
2021/07/10 14:05:27;;;;;;;3.07;2.97;;;26.50;99.90;;;;;;4952182;29;20424;-76
2021/07/10 14:07:55;;;;;;;3.60;3.40;;;26.40;99.90;;;;;;4953707;29;20420;-76
2021/07/10 14:10:27;;;;;;;3.00;2.80;;;26.40;99.90;;;;;;4960422;29;20423;-76
2021/07/10 14:12:54;;;;;;;5.23;2.43;;;26.20;99.90;;;;;;4955205;28;20432;-76
2021/07/10 14:15:20;;;;;;;3.63;3.40;;;26.20;99.90;;;;;;4953558;28;20451;-76
2021/07/10 14:17:47;;;;;;;5.90;5.40;;;26.00;99.90;;;;;;4953366;28;20526;-76
2021/07/10 14:20:15;;;;;;;2.30;2.20;;;26.10;99.90;;;;;;4952156;29;20837;-76
2021/07/10 14:22:42;;;;;;;2.43;2.33;;;26.20;99.90;;;;;;4953128;28;20432;-76
2021/07/10 14:25:11;;;;;;;3.40;3.20;;;26.20;99.90;;;;;;4953265;29;20420;-76
2021/07/10 14:27:38;;;;;;;4.30;4.00;;;26.50;99.90;;;;;;4953148;28;20409;-76
2021/07/10 14:30:05;;;;;;;3.50;3.20;;;26.40;99.90;;;;;;4952098;29;20432;-76
2021/07/10 14:32:30;;;;;;;3.07;2.67;;;26.20;99.90;;;;;;4951604;28;21084;-76
2021/07/10 14:34:56;;;;;;;7.13;6.43;;;26.30;99.90;;;;;;4953506;29;20511;-77
2021/07/10 14:37:23;;;;;;;6.90;5.87;;;26.50;99.90;;;;;;4953118;28;20244;-76
2021/07/10 14:39:48;;;;;;;3.57;3.30;;;26.50;99.90;;;;;;4956924;29;20172;-75
2021/07/10 14:42:14;;;;;;;4.77;3.37;;;26.40;99.90;;;;;;4956720;28;20435;-76
2021/07/10 14:44:40;;;;;;;5.10;4.80;;;26.40;99.90;;;;;;4956569;28;20180;-76
2021/07/10 14:47:05;;;;;;;3.07;2.73;;;26.60;99.90;;;;;;4956571;29;20271;-76
2021/07/10 14:49:31;;;;;;;3.10;2.90;;;26.60;99.90;;;;;;4955308;29;20673;-76
2021/07/10 14:51:56;;;;;;;4.77;4.40;;;26.50;99.90;;;;;;4956454;28;20200;-76
2021/07/10 14:54:22;;;;;;;2.50;2.30;;;26.50;99.90;;;;;;4956238;29;20181;-77
2021/07/10 14:56:47;;;;;;;2.40;2.20;;;26.50;99.90;;;;;;4956622;29;20280;-77
2021/07/10 14:59:13;;;;;;;4.60;4.33;;;26.30;99.90;;;;;;4956684;28;20190;-76
2021/07/10 15:01:39;;;;;;;3.50;3.20;;;26.30;99.90;;;;;;4956395;28;20200;-77
2021/07/10 15:04:05;;;;;;;3.37;3.17;;;26.20;99.90;;;;;;4956252;29;20196;-77
2021/07/10 15:06:30;;;;;;;20.70;18.57;;;26.10;99.90;;;;;;4956402;29;20219;-77
2021/07/10 15:08:56;;;;;;;5.70;5.20;;;26.20;99.90;;;;;;4956841;28;20208;-77
2021/07/10 15:11:21;;;;;;;183.60;154.00;;;26.20;99.90;;;;;;4955958;28;20275;-77
2021/07/10 15:13:47;;;;;;;11.57;8.13;;;26.20;99.90;;;;;;4956039;28;20689;-77
2021/07/10 15:16:12;;;;;;;14.80;11.47;;;26.40;99.90;;;;;;4956110;29;20527;-76
2021/07/10 15:18:38;;;;;;;9.93;8.00;;;26.40;99.90;;;;;;4956048;28;20209;-77
2021/07/10 15:21:04;;;;;;;2.70;2.50;;;26.30;99.90;;;;;;4955966;28;20200;-77
2021/07/10 15:23:30;;;;;;;4.17;3.77;;;26.20;99.90;;;;;;4955725;29;20207;-77
2021/07/10 15:25:55;;;;;;;3.07;2.30;;;26.20;99.90;;;;;;4956113;28;20257;-77
2021/07/10 15:28:21;;;;;;;2.70;2.50;;;26.30;99.90;;;;;;4955813;28;20580;-77
2021/07/10 15:30:48;;;;;;;2.37;2.27;;;26.30;99.90;;;;;;4954543;28;20195;-77
2021/07/10 15:33:14;;;;;;;2.37;2.27;;;26.30;99.90;;;;;;4955547;28;20662;-76
2021/07/10 15:35:40;;;;;;;3.30;3.10;;;26.30;99.90;;;;;;4954593;29;20428;-77
2021/07/10 15:38:06;;;;;;;2.23;2.13;;;26.40;99.90;;;;;;4955653;28;20208;-77
2021/07/10 15:40:32;;;;;;;5.37;2.50;;;26.40;99.90;;;;;;4955489;29;20184;-77
2021/07/10 15:42:59;;;;;;;2.70;2.50;;;26.30;99.90;;;;;;4955485;28;20843;-77
2021/07/10 15:45:24;;;;;;;2.73;2.47;;;26.30;99.90;;;;;;4955686;28;20496;-77
2021/07/10 15:47:50;;;;;;;3.23;2.93;;;26.20;99.90;;;;;;4955576;29;20503;-77
2021/07/10 15:50:18;;;;;;;2.50;2.40;;;26.30;99.90;;;;;;4954374;28;20696;-77
2021/07/10 15:52:44;;;;;;;4.83;2.17;;;26.20;99.90;;;;;;4953976;28;20247;-76
2021/07/10 15:55:12;;;;;;;5.73;5.20;;;26.20;99.90;;;;;;4955708;28;20420;-76
2021/07/10 15:57:38;;;;;;;3.30;3.00;;;26.20;99.90;;;;;;4955277;28;20472;-77
2021/07/10 16:00:17;;;;;;;2.70;2.50;;;26.00;99.90;;;;;;4955388;29;20827;-76
2021/07/10 16:02:42;;;;;;;3.00;2.80;;;26.00;99.90;;;;;;4954992;28;20377;-75
2021/07/10 16:05:10;;;;;;;2.40;2.20;;;26.10;99.90;;;;;;4955331;29;20508;-77
2021/07/10 16:07:37;;;;;;;2.17;2.07;;;26.20;99.90;;;;;;4955194;29;20300;-77
2021/07/10 16:10:08;;;;;;;3.20;2.90;;;26.10;99.90;;;;;;4955344;28;20479;-77
2021/07/10 16:12:34;;;;;;;2.13;2.03;;;26.20;99.90;;;;;;4954944;28;20495;-76
2021/07/10 16:14:59;;;;;;;3.00;2.70;;;26.10;99.90;;;;;;4955181;28;20921;-76
2021/07/10 16:17:25;;;;;;;2.20;2.00;;;26.10;99.90;;;;;;4954921;29;20279;-76
2021/07/10 16:19:50;;;;;;;5.10;3.20;;;26.10;99.90;;;;;;4954926;28;20215;-76
2021/07/10 16:22:16;;;;;;;2.83;2.63;;;26.00;99.90;;;;;;4954777;28;20207;-76
2021/07/10 16:24:42;;;;;;;3.07;2.30;;;25.90;99.90;;;;;;4954688;29;20177;-76
2021/07/10 16:27:08;;;;;;;2.03;1.93;;;25.80;99.90;;;;;;4953640;29;20416;-76
2021/07/10 16:29:36;;;;;;;2.13;2.03;;;25.80;99.90;;;;;;4954693;29;20231;-76
2021/07/10 16:32:03;;;;;;;7.43;6.00;;;25.80;99.90;;;;;;4953641;28;21012;-76
2021/07/10 16:34:29;;;;;;;2.73;2.53;;;25.80;99.90;;;;;;4954018;29;21053;-76
2021/07/10 16:36:54;;;;;;;2.30;2.20;;;25.80;99.90;;;;;;4954861;29;20479;-76
2021/07/10 16:39:20;;;;;;;2.20;2.10;;;25.80;99.90;;;;;;4954389;28;20408;-77
2021/07/10 16:41:45;;;;;;;2.83;2.30;;;25.70;99.90;;;;;;4954686;28;20572;-76
2021/07/10 16:44:11;;;;;;;3.80;3.50;;;25.70;99.90;;;;;;4954590;29;20173;-77
2021/07/10 16:46:37;;;;;;;3.27;2.40;;;25.60;99.90;;;;;;4954461;28;20593;-77
2021/07/10 16:49:02;;;;;;;2.20;2.10;;;25.60;99.90;;;;;;4954748;28;20177;-77
2021/07/10 16:51:28;;;;;;;2.40;2.20;;;25.50;99.90;;;;;;4954375;28;20197;-77
2021/07/10 16:53:53;;;;;;;3.27;1.63;;;25.50;99.90;;;;;;4953233;29;20177;-77
2021/07/10 16:56:19;;;;;;;2.67;2.47;;;25.50;99.90;;;;;;4954539;29;20187;-78
2021/07/10 16:58:44;;;;;;;2.53;2.43;;;25.50;99.90;;;;;;4954475;28;20615;-77
2021/07/10 17:01:10;;;;;;;2.37;2.27;;;25.50;99.90;;;;;;4952975;28;20189;-77
2021/07/10 17:03:36;;;;;;;2.33;2.23;;;25.50;99.90;;;;;;4953913;29;20658;-77
2021/07/10 17:06:02;;;;;;;1.70;1.60;;;25.50;99.90;;;;;;4954483;28;20496;-77
2021/07/10 17:08:29;;;;;;;4.50;2.13;;;25.50;99.90;;;;;;4954144;28;20183;-77
2021/07/10 17:10:58;;;;;;;2.10;2.00;;;25.50;99.90;;;;;;4954147;28;20700;-76
2021/07/10 17:13:24;;;;;;;2.17;2.07;;;25.50;99.90;;;;;;4953984;28;20417;-76
2021/07/10 17:15:50;;;;;;;2.27;2.17;;;25.40;99.90;;;;;;4954961;28;20427;-76
2021/07/10 17:18:16;;;;;;;2.30;2.20;;;25.30;99.90;;;;;;4953922;29;20491;-76
2021/07/10 17:20:42;;;;;;;3.27;3.07;;;25.30;99.90;;;;;;4957260;28;20408;-76
2021/07/10 17:23:08;;;;;;;2.77;2.53;;;25.20;99.90;;;;;;4943094;29;20574;-77
2021/07/10 17:25:33;;;;;;;2.20;2.10;;;25.20;99.90;;;;;;4937805;28;20193;-76
2021/07/10 17:27:59;;;;;;;2.20;2.10;;;25.10;99.90;;;;;;4934633;29;20181;-77